createdAt,value
2023-06-22T00:00:23.213Z,21.93
2023-06-22T00:05:47.982Z,21.86
2023-06-22T00:10:50.762Z,21.78
2023-06-22T00:15:55.672Z,21.71
2023-06-22T00:20:59.564Z,21.65
2023-06-22T00:26:04.022Z,21.64
2023-06-22T00:31:06.971Z,21.70
2023-06-22T00:36:09.773Z,21.77
2023-06-22T00:41:15.194Z,21.77
2023-06-22T00:46:20.795Z,21.73
2023-06-22T00:51:25.532Z,21.74
2023-06-22T00:56:33.907Z,21.79
2023-06-22T01:01:44.135Z,21.83
2023-06-22T01:07:24.185Z,21.86
2023-06-22T01:12:35.973Z,21.88
2023-06-22T01:17:44.061Z,21.84
2023-06-22T01:23:36.305Z,21.80
2023-06-22T01:28:51.180Z,21.69
2023-06-22T01:33:59.260Z,21.61
2023-06-22T01:39:06.424Z,21.56
2023-06-22T01:44:12.555Z,21.50
2023-06-22T01:49:16.336Z,21.48
2023-06-22T01:54:21.402Z,21.49
2023-06-22T01:59:42.646Z,21.48
2023-06-22T02:05:11.647Z,21.39
2023-06-22T02:10:21.005Z,21.28
2023-06-22T02:15:26.785Z,21.23
2023-06-22T02:20:30.220Z,21.17
2023-06-22T02:25:34.196Z,21.07
2023-06-22T02:30:36.984Z,20.98
2023-06-22T02:35:40.879Z,20.86
2023-06-22T02:40:47.910Z,20.75
2023-06-22T02:45:51.781Z,20.69
2023-06-22T02:50:54.530Z,20.63
2023-06-22T02:55:57.431Z,20.62
2023-06-22T03:01:05.907Z,20.57
2023-06-22T03:06:15.359Z,20.59
2023-06-22T03:11:18.320Z,21.25
2023-06-22T03:16:22.640Z,22.36
2023-06-22T03:21:30.109Z,23.22
2023-06-22T03:26:33.217Z,23.84
2023-06-22T03:31:37.199Z,24.37
2023-06-22T03:36:46.606Z,24.88
2023-06-22T03:41:52.720Z,25.33
2023-06-22T03:46:55.356Z,25.76
2023-06-22T03:52:00.608Z,26.24
2023-06-22T03:57:08.347Z,26.76
2023-06-22T04:02:11.100Z,27.11
2023-06-22T04:07:14.121Z,27.44
2023-06-22T04:12:19.023Z,27.83
2023-06-22T04:17:21.985Z,28.14
2023-06-22T04:22:24.639Z,27.95
2023-06-22T04:27:27.893Z,27.95
2023-06-22T04:32:30.637Z,27.63
2023-06-22T04:37:34.920Z,27.25
2023-06-22T04:42:40.728Z,27.14
2023-06-22T04:47:44.036Z,27.25
2023-06-22T04:52:51.612Z,26.75
2023-06-22T04:57:56.722Z,26.70
2023-06-22T05:03:14.889Z,27.52
2023-06-22T05:08:29.948Z,27.09
2023-06-22T05:13:33.239Z,26.36
2023-06-22T05:18:40.467Z,25.99
2023-06-22T05:24:09.295Z,25.79
2023-06-22T05:29:11.991Z,25.34
2023-06-22T05:34:20.590Z,24.85
2023-06-22T05:39:24.688Z,24.37
2023-06-22T05:44:27.382Z,24.08
2023-06-22T05:49:33.736Z,24.03
2023-06-22T05:54:39.614Z,23.97
2023-06-22T05:59:42.379Z,23.74
2023-06-22T06:04:47.092Z,23.50
2023-06-22T06:09:51.064Z,23.19
2023-06-22T06:14:57.698Z,23.12
2023-06-22T06:20:03.601Z,23.10
2023-06-22T06:25:08.350Z,23.11
2023-06-22T06:30:15.997Z,23.15
2023-06-22T06:35:25.318Z,23.03
2023-06-22T06:40:31.087Z,22.77
2023-06-22T06:45:35.921Z,22.63
2023-06-22T06:50:41.808Z,22.78
2023-06-22T06:55:49.287Z,23.36
2023-06-22T07:00:52.174Z,24.73
2023-06-22T07:05:57.616Z,25.30
2023-06-22T07:11:02.134Z,25.16
2023-06-22T07:16:06.753Z,24.76
2023-06-22T07:21:09.537Z,24.24
2023-06-22T07:26:13.824Z,23.82
2023-06-22T07:31:18.960Z,23.58
2023-06-22T07:36:24.249Z,23.54
2023-06-22T07:41:27.146Z,23.54
2023-06-22T07:46:33.111Z,23.49
2023-06-22T07:51:36.223Z,23.12
2023-06-22T07:56:44.629Z,22.96
2023-06-22T08:01:50.493Z,23.00
2023-06-22T08:06:53.409Z,22.98
2023-06-22T08:11:57.770Z,22.90
2023-06-22T08:17:00.532Z,22.81
2023-06-22T08:22:03.480Z,22.82
2023-06-22T08:27:15.813Z,22.86
2023-06-22T08:32:18.926Z,22.88
2023-06-22T08:37:24.839Z,22.90
2023-06-22T08:42:28.396Z,22.95
2023-06-22T08:47:31.586Z,22.78
2023-06-22T08:52:35.864Z,23.01
2023-06-22T08:57:40.471Z,23.34
2023-06-22T09:02:50.238Z,24.03
2023-06-22T09:08:01.191Z,25.65
2023-06-22T09:13:06.750Z,27.11
2023-06-22T09:18:12.849Z,27.96
2023-06-22T09:23:15.938Z,28.91
2023-06-22T09:28:22.954Z,29.32
2023-06-22T09:33:27.746Z,29.50
2023-06-22T09:38:30.548Z,29.84
2023-06-22T09:43:37.269Z,30.12
2023-06-22T09:48:43.242Z,30.18
2023-06-22T09:53:46.118Z,30.48
2023-06-22T09:58:52.089Z,30.62
2023-06-22T10:04:03.930Z,30.60
2023-06-22T10:09:07.715Z,30.49
2023-06-22T10:14:11.682Z,30.35
2023-06-22T10:19:14.588Z,30.37
2023-06-22T10:24:17.463Z,30.98
2023-06-22T10:29:22.115Z,30.77
2023-06-22T10:34:24.799Z,30.01
2023-06-22T10:39:27.521Z,29.15
2023-06-22T10:44:30.227Z,28.41
2023-06-22T10:49:35.409Z,28.48
2023-06-22T10:54:39.895Z,28.63
2023-06-22T10:59:45.365Z,28.66
2023-06-22T11:04:51.171Z,28.38
2023-06-22T11:09:54.140Z,28.26
2023-06-22T11:23:15.387Z,28.31
2023-06-22T11:28:33.075Z,28.37
2023-06-22T11:34:14.929Z,28.60
2023-06-22T11:40:06.283Z,28.47
2023-06-22T11:45:42.654Z,28.25
2023-06-22T12:08:10.166Z,27.91
2023-06-22T12:13:41.340Z,27.77
2023-06-22T12:18:44.045Z,27.81
2023-06-22T12:25:15.496Z,27.88
2023-06-22T12:30:52.434Z,27.93
2023-06-22T12:35:57.271Z,27.95
2023-06-22T12:43:53.134Z,27.86
2023-06-22T12:46:38.780Z,27.69
2023-06-22T12:51:43.719Z,27.50
2023-06-22T12:56:46.730Z,27.51
2023-06-22T13:01:52.406Z,27.55
2023-06-22T13:06:55.311Z,27.41
2023-06-22T13:12:00.987Z,27.51
2023-06-22T13:17:03.939Z,27.72
2023-06-22T13:22:31.723Z,27.86
2023-06-22T13:27:34.506Z,27.76
2023-06-22T13:32:37.538Z,27.72
2023-06-22T13:37:42.447Z,27.60
2023-06-22T13:42:46.422Z,27.45
2023-06-22T13:47:49.167Z,27.21
2023-06-22T13:52:54.186Z,26.99
2023-06-22T13:57:56.876Z,26.96
2023-06-22T14:02:59.593Z,26.96
2023-06-22T14:08:03.951Z,26.96
2023-06-22T14:13:08.154Z,27.05
2023-06-22T14:18:16.206Z,26.94
2023-06-22T14:23:19.020Z,26.91
2023-06-22T14:28:22.161Z,26.99
2023-06-22T14:33:24.864Z,26.99
2023-06-22T14:38:28.683Z,27.12
2023-06-22T14:43:32.752Z,27.17
2023-06-22T14:48:35.572Z,27.13
2023-06-22T14:53:39.602Z,27.08
2023-06-22T14:58:48.293Z,27.16
2023-06-22T15:03:52.197Z,27.20
2023-06-22T15:08:55.185Z,27.19
2023-06-22T15:14:00.057Z,27.18
2023-06-22T15:19:03.147Z,27.17
2023-06-22T15:24:06.078Z,27.18
2023-06-22T15:29:14.970Z,27.06
2023-06-22T15:34:22.404Z,26.90
2023-06-22T15:39:35.006Z,26.81
2023-06-22T15:44:37.869Z,26.76
2023-06-22T15:49:40.575Z,26.67
2023-06-22T15:54:47.113Z,26.56
2023-06-22T15:59:51.596Z,26.57
2023-06-22T16:04:59.864Z,26.57
2023-06-22T16:10:05.443Z,26.55
2023-06-22T16:15:09.064Z,26.51
2023-06-22T16:20:27.205Z,26.45
2023-06-22T16:25:32.462Z,26.36
2023-06-22T16:30:35.423Z,26.32
2023-06-22T16:35:40.138Z,26.27
2023-06-22T16:40:42.920Z,26.26
2023-06-22T16:45:45.629Z,26.20
2023-06-22T16:50:48.320Z,26.14
2023-06-22T16:55:56.039Z,26.08
2023-06-22T17:01:00.492Z,25.99
2023-06-22T17:06:04.449Z,25.84
2023-06-22T17:11:09.645Z,25.76
2023-06-22T17:16:13.271Z,25.75
2023-06-22T17:21:23.901Z,25.66
2023-06-22T17:26:29.064Z,25.62
2023-06-22T17:31:44.547Z,25.57
2023-06-22T17:36:52.970Z,25.48
2023-06-22T17:41:55.927Z,25.37
2023-06-22T17:47:00.049Z,25.27
2023-06-22T17:52:02.938Z,25.18
2023-06-22T17:57:17.324Z,25.12
2023-06-22T18:02:26.687Z,25.03
2023-06-22T18:07:33.401Z,24.96
2023-06-22T18:12:44.700Z,24.89
2023-06-22T18:17:52.068Z,24.80
2023-06-22T18:23:01.598Z,24.63
2023-06-22T18:28:10.691Z,24.35
2023-06-22T18:33:13.773Z,24.11
2023-06-22T18:38:17.173Z,23.88
2023-06-22T18:43:27.039Z,23.65
2023-06-22T18:48:29.667Z,23.48
2023-06-22T18:53:32.478Z,23.30
2023-06-22T18:58:35.283Z,23.09
2023-06-22T19:03:43.217Z,22.90
2023-06-22T19:09:15.598Z,22.70
2023-06-22T19:14:22.856Z,22.46
2023-06-22T19:19:25.631Z,22.25
2023-06-22T19:24:47.989Z,22.07
2023-06-22T19:29:55.317Z,21.94
2023-06-22T19:35:00.339Z,21.80
2023-06-22T19:40:07.192Z,21.66
2023-06-22T19:45:16.466Z,21.50
2023-06-22T19:50:19.315Z,21.33
2023-06-22T19:55:23.641Z,21.18
2023-06-22T20:00:26.759Z,21.04
2023-06-22T20:05:29.909Z,20.90
2023-06-22T20:10:39.477Z,20.83
2023-06-22T20:15:48.091Z,20.79
2023-06-22T20:20:53.420Z,20.73
2023-06-22T20:25:59.026Z,20.60
2023-06-22T20:31:12.684Z,20.45
2023-06-22T20:36:17.786Z,20.32
2023-06-22T20:41:20.727Z,20.23
2023-06-22T20:46:25.951Z,20.11
2023-06-22T20:51:28.856Z,19.95
2023-06-22T20:56:34.098Z,19.83
2023-06-22T21:01:37.110Z,19.72
2023-06-22T21:06:40.129Z,19.61
2023-06-22T21:11:42.884Z,19.49
2023-06-22T21:16:48.938Z,19.39
2023-06-22T21:21:52.131Z,19.33
2023-06-22T21:26:55.080Z,19.24
2023-06-22T21:31:58.045Z,19.11
2023-06-22T21:37:01.164Z,19.07
2023-06-22T21:42:07.124Z,19.04
2023-06-22T21:47:10.563Z,18.98
2023-06-22T21:52:15.748Z,18.89
2023-06-22T21:57:23.095Z,18.81
2023-06-22T22:02:26.978Z,18.76
2023-06-22T22:07:31.478Z,18.68
2023-06-22T22:12:35.706Z,18.57
2023-06-22T22:17:38.611Z,18.48
2023-06-22T22:22:41.744Z,18.40
2023-06-22T22:27:46.837Z,18.35
2023-06-22T22:32:50.028Z,18.31
2023-06-22T22:37:55.372Z,18.29
2023-06-22T22:43:00.333Z,18.19
2023-06-22T22:48:05.911Z,18.12
2023-06-22T22:53:11.450Z,18.02
2023-06-22T22:58:16.998Z,17.90
2023-06-22T23:03:19.897Z,17.77
2023-06-22T23:08:24.495Z,17.58
2023-06-22T23:13:28.488Z,17.42
2023-06-22T23:18:32.788Z,17.35
2023-06-22T23:23:37.536Z,17.30
2023-06-22T23:28:46.022Z,17.27
2023-06-22T23:33:49.307Z,17.25
2023-06-22T23:38:54.579Z,17.20
2023-06-22T23:43:57.768Z,17.14
2023-06-22T23:49:03.365Z,17.05
2023-06-22T23:54:06.250Z,16.92
2023-06-22T23:59:09.654Z,16.84
